No requereix especial atenci├│ pel que fa al clima.   -   No hi ha Alarmes

Resums METAR propers

 

LEBL - Barcelona Airpor, Spain
DistÓncia des de l'estaciˇ: SSE 30km
Actualitzaciˇ: 15/08/2018 20:30
Parcialment cobert
Parcialment cobert
 Vent del S
Vent: S 13 km/h
Temperatura: 27°C
Temp. xafogor: 29°C
Rosada: 21°C
Humitat: 70%
Bar˛metre: 1016 hPa
Nuvolositat: Parcialment cobert
Visibilitat: 10 km
Detalls nuvolositat: Parcialment cobert 914 m
2018/08/15 18:30 LEBL 151830Z 19007KT 9999 SCT030 27/21 Q1016 NOSIG
LELL - Sabadell, Spain
DistÓncia des de l'estaciˇ: ONO 14km
Actualitzaciˇ: 15/08/2018 20:30
Parcialment cobert
Parcialment cobert
 Vent del SSE
Vent: SSE 13 km/h
Temperatura: 27°C
Temp. xafogor: 29°C
Rosada: 20°C
Humitat: 66%
Bar˛metre: 1017 hPa
Nuvolositat: Parcialment cobert
Visibilitat: 10 km
Detalls nuvolositat: Parcialment cobert 914 m
Parcialment cobert 1372 m
2018/08/15 18:30 LELL 151830Z 15007KT 090V180 9999 SCT030 SCT045 27/20 Q1017
 
LEGE - Girona/Costa Bra, Spain
DistÓncia des de l'estaciˇ: NE 65km
Actualitzaciˇ: 15/08/2018 20:30
Alguns n˙vols
Alguns n˙vols
 Vent del SSO
Vent: SSO 15 km/h
Temperatura: 25°C
Rosada: 17°C
Humitat: 61%
Bar˛metre: 1017 hPa
Nuvolositat: Alguns n˙vols
Visibilitat: 10 km
Detalls nuvolositat: Alguns n˙vols 1372 m
2018/08/15 18:30 LEGE 151830Z 21008KT 170V250 9999 FEW045 25/17 Q1017
LERS - Reus (civ/Mil), Spain
DistÓncia des de l'estaciˇ: OSO 96km
Actualitzaciˇ: 15/08/2018 20:30
Alguns n˙vols
Alguns n˙vols
 Vent del SSO
Vent: SSO 9 km/h
Temperatura: 26°C
Rosada: 21°C
Humitat: 74%
Bar˛metre: 1016 hPa
Nuvolositat: Alguns n˙vols
Visibilitat: 10 km
Detalls nuvolositat: Alguns n˙vols 1219 m
2018/08/15 18:30 LERS 151830Z 21005KT 160V240 9999 FEW040 26/21 Q1016
 
LESU - Pirineus/La Seu, Spain
DistÓncia des de l'estaciˇ: NO 121km
Actualitzaciˇ: 15/08/2018 17:30
NO actualitzat
Alguns n˙vols
Alguns n˙vols
 Vent del SSO
Vent: SSO 17 km/h
Temperatura: 28°C
Temp. xafogor: 28°C
Rosada: 14°C
Humitat: 42%
Bar˛metre: 1018 hPa
Nuvolositat: Alguns n˙vols
Visibilitat: 10 km
Detalls nuvolositat: Alguns n˙vols 1829 m
2018/08/15 15:30 LESU 151530Z 21009KT 170V250 9999 FEW060 28/14 Q1018
LEDA - Lleida/Alguaire, Spain
DistÓncia des de l'estaciˇ: ONO 146km
Actualitzaciˇ: 15/08/2018 20:30
SerÚ
SerÚ
 Vent del NE
Vent: NE 9 km/h
Temperatura: 28°C
Rosada: 8°C
Humitat: 28%
Bar˛metre: 1016 hPa
Nuvolositat: SerÚ
Visibilitat: 10 km
2018/08/15 18:30 LEDA 151830Z AUTO 05005KT 9999 NCD 28/08 Q1016
 
LFMP - Perpignan/Rivesa, France
DistÓncia des de l'estaciˇ: NNE 150km
Actualitzaciˇ: 15/08/2018 20:30
SerÚ
SerÚ
 Vent del ONO
Vent: ONO 17 km/h
Temperatura: 29°C
Rosada: 12°C
Humitat: 35%
Bar˛metre: 1016 hPa
Resum: SerÚ
Visibilitat: major de 10 km
2018/08/15 18:30 LFMP 151830Z AUTO 29009KT CAVOK 29/12 Q1016 NOSIG
LEPA - Palma De Mallorca, Spain
DistÓncia des de l'estaciˇ: S 216km
Actualitzaciˇ: 15/08/2018 20:30
Parcialment cobert
Parcialment cobert
 Vent del SSO
Vent: SSO 9 km/h
Temperatura: 28°C
Temp. xafogor: 29°C
Rosada: 19°C
Humitat: 58%
Bar˛metre: 1016 hPa
Nuvolositat: Parcialment cobert
Visibilitat: 10 km
Detalls nuvolositat: Alguns n˙vols 1067 m
Parcialment cobert 1524 m
2018/08/15 18:30 LEPA 151830Z 21005KT 180V240 9999 FEW035 SCT050 28/19 Q1016 NOSIG